Time;durP1;ratioP1;P1;durP2;ratioP2;P2;SDS_P1;SDS_P2;PMS_P1;PMS_P2;Temp;Humidity;BMP_temperature;BMP_pressure;BME280_temperature;BME280_humidity;BME280_pressure;Samples;Min_cycle;Max_cycle;Signal;HPM_P1;HPM_P2
2023/11/11 00:01:28;;;;;;;2.80;1.80;;;5.70;99.90;;;;;;5139674;27;20544;-67
2023/11/11 00:03:56;;;;;;;5.10;1.60;;;5.70;99.90;;;;;;5139309;27;20483;-65
2023/11/11 00:06:24;;;;;;;2.60;1.60;;;5.80;99.90;;;;;;5138967;27;20465;-66
2023/11/11 00:08:52;;;;;;;2.93;1.80;;;5.80;99.90;;;;;;5139119;27;20465;-66
2023/11/11 00:11:20;;;;;;;2.87;1.60;;;5.90;99.90;;;;;;5138859;27;20495;-64
2023/11/11 00:13:47;;;;;;;2.47;1.63;;;5.70;99.90;;;;;;5138944;27;20553;-64
2023/11/11 00:16:15;;;;;;;2.57;1.30;;;5.70;99.90;;;;;;5138468;27;20458;-65
2023/11/11 00:18:42;;;;;;;2.73;1.60;;;5.60;99.90;;;;;;5138706;27;20754;-65
2023/11/11 00:21:11;;;;;;;2.53;1.50;;;5.80;99.90;;;;;;5138674;27;20454;-64
2023/11/11 00:23:39;;;;;;;3.00;1.63;;;5.80;99.90;;;;;;5138810;27;20495;-66
2023/11/11 00:26:07;;;;;;;2.70;1.60;;;5.70;99.90;;;;;;5138560;27;20549;-65
2023/11/11 00:28:40;;;;;;;2.60;1.60;;;5.70;99.90;;;;;;5138708;27;20759;-67
2023/11/11 00:31:10;;;;;;;2.73;1.90;;;5.70;99.90;;;;;;5137816;27;20577;-66
2023/11/11 00:33:38;;;;;;;3.60;1.90;;;5.70;99.90;;;;;;5139003;27;20743;-66
2023/11/11 00:36:06;;;;;;;4.30;1.67;;;5.80;99.90;;;;;;5138100;27;20455;-65
2023/11/11 00:38:35;;;;;;;2.67;1.87;;;5.80;99.90;;;;;;5138042;27;20486;-64
2023/11/11 00:41:04;;;;;;;2.90;1.83;;;5.70;99.90;;;;;;5138393;27;20454;-67
2023/11/11 00:43:31;;;;;;;2.40;1.67;;;5.70;99.90;;;;;;5138500;27;20469;-66
2023/11/11 00:45:58;;;;;;;2.87;1.80;;;5.70;99.90;;;;;;5138068;27;20455;-65
2023/11/11 00:48:26;;;;;;;3.57;1.83;;;5.80;99.90;;;;;;5138427;27;20541;-65
2023/11/11 00:50:53;;;;;;;3.00;2.10;;;5.80;99.90;;;;;;5138101;27;20527;-65
2023/11/11 00:53:20;;;;;;;2.70;2.00;;;5.70;99.90;;;;;;5138517;27;20454;-64
2023/11/11 00:55:47;;;;;;;3.10;2.10;;;5.70;99.90;;;;;;5138270;27;20550;-65
2023/11/11 00:58:16;;;;;;;2.77;2.00;;;5.80;99.90;;;;;;5138263;28;20512;-64
2023/11/11 01:00:43;;;;;;;2.83;1.90;;;5.90;99.90;;;;;;5138040;28;20875;-64
2023/11/11 01:03:11;;;;;;;3.60;2.40;;;5.90;99.90;;;;;;5138089;28;20454;-64
2023/11/11 01:05:38;;;;;;;2.70;1.90;;;5.90;99.90;;;;;;5138333;28;20455;-65
2023/11/11 01:08:05;;;;;;;3.03;2.43;;;5.90;99.90;;;;;;5137509;28;20455;-65
2023/11/11 01:10:37;;;;;;;3.50;2.33;;;5.90;99.90;;;;;;5138115;28;20459;-66
2023/11/11 01:13:04;;;;;;;3.27;2.40;;;5.80;99.90;;;;;;5138091;28;20544;-66
2023/11/11 01:15:33;;;;;;;2.97;2.43;;;5.90;99.90;;;;;;5138154;28;20504;-67
2023/11/11 01:18:00;;;;;;;3.53;2.83;;;5.90;99.90;;;;;;5138246;28;20766;-66
2023/11/11 01:20:28;;;;;;;4.37;2.60;;;5.90;99.90;;;;;;5137674;28;20537;-66
2023/11/11 01:22:56;;;;;;;2.93;2.27;;;6.00;99.90;;;;;;5137874;28;20458;-65
2023/11/11 01:25:23;;;;;;;3.70;2.77;;;6.00;99.90;;;;;;5138029;28;20549;-66
2023/11/11 01:27:50;;;;;;;3.30;2.90;;;6.10;99.90;;;;;;5138069;28;20463;-67
2023/11/11 01:30:19;;;;;;;6.63;4.57;;;6.00;99.90;;;;;;5138003;28;20451;-66
2023/11/11 01:32:51;;;;;;;7.00;5.83;;;6.00;99.90;;;;;;5137458;28;20517;-66
2023/11/11 01:35:18;;;;;;;8.23;6.60;;;6.00;99.90;;;;;;5137897;28;20531;-66
2023/11/11 01:37:45;;;;;;;8.90;7.60;;;6.00;99.90;;;;;;5137766;28;20854;-67
2023/11/11 01:40:13;;;;;;;11.10;7.77;;;6.10;99.90;;;;;;5137362;28;20462;-67
2023/11/11 01:42:41;;;;;;;12.57;10.00;;;6.10;99.90;;;;;;5137511;28;20461;-67
2023/11/11 01:45:08;;;;;;;14.20;10.97;;;6.10;99.90;;;;;;5137732;28;20545;-66
2023/11/11 01:47:36;;;;;;;14.13;11.53;;;6.10;99.90;;;;;;5137806;28;20501;-67
2023/11/11 01:50:06;;;;;;;14.87;12.67;;;6.10;99.90;;;;;;5137159;28;20460;-67
2023/11/11 01:52:34;;;;;;;20.00;15.07;;;6.20;99.90;;;;;;5137492;28;20954;-66
2023/11/11 01:55:03;;;;;;;21.97;16.30;;;6.10;99.90;;;;;;5137576;28;20454;-67
2023/11/11 01:57:31;;;;;;;24.60;17.43;;;6.20;99.90;;;;;;5138052;28;20458;-67
2023/11/11 01:59:59;;;;;;;26.57;18.67;;;6.20;99.90;;;;;;5137732;28;20455;-67
2023/11/11 02:02:27;;;;;;;24.17;19.13;;;6.20;99.90;;;;;;5137268;27;20550;-67
2023/11/11 02:04:54;;;;;;;28.90;18.97;;;6.20;99.90;;;;;;5140645;27;20462;-67
2023/11/11 02:07:22;;;;;;;26.20;19.73;;;6.30;99.90;;;;;;5141363;27;20454;-67
2023/11/11 02:09:50;;;;;;;30.20;22.53;;;6.30;99.90;;;;;;5141676;27;20541;-67
2023/11/11 02:12:19;;;;;;;29.10;22.50;;;6.30;99.90;;;;;;5141483;27;20519;-66
2023/11/11 02:14:47;;;;;;;32.33;21.00;;;6.30;99.90;;;;;;5141408;27;20863;-67
2023/11/11 02:17:15;;;;;;;29.50;24.30;;;6.30;99.90;;;;;;5141459;27;20497;-67
2023/11/11 02:19:42;;;;;;;32.07;22.37;;;6.30;99.90;;;;;;5140652;27;20961;-67
2023/11/11 02:22:10;;;;;;;34.03;23.80;;;6.30;99.90;;;;;;5140924;27;20862;-67
2023/11/11 02:24:40;;;;;;;30.87;24.03;;;6.30;99.90;;;;;;5140607;27;20465;-67
2023/11/11 02:27:07;;;;;;;28.07;22.30;;;6.40;99.90;;;;;;5140447;27;20444;-68
2023/11/11 02:29:45;;;;;;;31.63;23.73;;;6.40;99.90;;;;;;5141196;27;20458;-67
2023/11/11 02:32:12;;;;;;;28.57;23.03;;;6.40;99.90;;;;;;5140383;27;20498;-67
2023/11/11 02:34:39;;;;;;;30.70;25.10;;;6.40;99.90;;;;;;5140736;27;20815;-67
2023/11/11 02:37:07;;;;;;;28.87;23.70;;;6.40;99.90;;;;;;5140811;27;20528;-67
2023/11/11 02:39:37;;;;;;;29.30;24.13;;;6.40;99.90;;;;;;5140585;27;20980;-67
2023/11/11 02:42:06;;;;;;;30.40;23.37;;;6.40;99.90;;;;;;5140557;27;20473;-67
2023/11/11 02:44:33;;;;;;;28.97;23.20;;;6.40;99.90;;;;;;5140362;27;20458;-67
2023/11/11 02:47:00;;;;;;;27.97;23.00;;;6.30;99.90;;;;;;5140500;27;20450;-67
2023/11/11 02:49:27;;;;;;;32.13;25.23;;;6.30;99.90;;;;;;5140055;27;20465;-67
2023/11/11 02:51:54;;;;;;;32.10;24.70;;;6.30;99.90;;;;;;5140569;27;20498;-67
2023/11/11 02:54:21;;;;;;;29.70;23.80;;;6.30;99.90;;;;;;5140327;27;20875;-67
2023/11/11 02:56:48;;;;;;;31.13;22.87;;;6.30;99.90;;;;;;5140254;27;20450;-67
2023/11/11 02:59:17;;;;;;;31.97;25.27;;;6.30;99.90;;;;;;5140353;27;20458;-67
2023/11/11 03:01:44;;;;;;;30.90;24.40;;;6.30;99.90;;;;;;5140477;27;20435;-67
2023/11/11 03:04:12;;;;;;;35.87;27.93;;;6.30;99.90;;;;;;5140078;27;20560;-67
2023/11/11 03:06:42;;;;;;;33.40;25.37;;;6.30;99.90;;;;;;5140218;27;20459;-67
2023/11/11 03:09:09;;;;;;;32.90;26.37;;;6.40;99.90;;;;;;5139513;27;20562;-67
2023/11/11 03:11:37;;;;;;;40.60;28.70;;;6.40;99.90;;;;;;5140101;27;20486;-67
2023/11/11 03:14:04;;;;;;;36.33;28.37;;;6.40;99.90;;;;;;5139516;27;20481;-67
2023/11/11 03:16:37;;;;;;;40.13;29.97;;;6.50;99.90;;;;;;5139619;27;20719;-67
2023/11/11 03:19:05;;;;;;;37.93;28.43;;;6.50;99.90;;;;;;5139987;27;20938;-67
2023/11/11 03:21:32;;;;;;;42.00;29.43;;;6.50;99.90;;;;;;5140005;27;20458;-67
2023/11/11 03:23:59;;;;;;;43.10;29.60;;;6.50;99.90;;;;;;5139608;27;20576;-67
2023/11/11 03:26:27;;;;;;;36.30;28.27;;;6.50;99.90;;;;;;5139709;27;20459;-67
2023/11/11 03:28:55;;;;;;;40.50;29.63;;;6.50;99.90;;;;;;5139690;27;20467;-67
2023/11/11 03:31:22;;;;;;;34.80;27.60;;;6.50;99.90;;;;;;5139719;27;20464;-68
2023/11/11 03:33:50;;;;;;;34.20;26.77;;;6.40;99.90;;;;;;5139668;27;20794;-67
2023/11/11 03:36:17;;;;;;;34.67;26.20;;;6.40;99.90;;;;;;5139495;27;20760;-67
2023/11/11 03:38:44;;;;;;;34.17;26.63;;;6.50;99.90;;;;;;5139194;27;20479;-67
2023/11/11 03:41:12;;;;;;;35.10;25.83;;;6.50;99.90;;;;;;5139457;27;20454;-67
2023/11/11 03:43:39;;;;;;;32.23;25.70;;;6.40;99.90;;;;;;5139535;27;20955;-66
2023/11/11 03:46:07;;;;;;;32.17;25.60;;;6.50;99.90;;;;;;5138999;27;20461;-67
2023/11/11 03:48:34;;;;;;;28.40;24.30;;;6.50;99.90;;;;;;5139066;27;20497;-67
2023/11/11 03:51:03;;;;;;;32.70;22.87;;;6.50;99.90;;;;;;5139362;27;20737;-67
2023/11/11 03:53:30;;;;;;;28.87;21.33;;;6.40;99.90;;;;;;5139642;27;20499;-66
2023/11/11 03:55:58;;;;;;;30.77;23.37;;;6.40;99.90;;;;;;5139009;27;20457;-68
2023/11/11 03:58:25;;;;;;;24.20;20.90;;;6.50;99.90;;;;;;5139325;27;20875;-67
2023/11/11 04:00:52;;;;;;;26.73;21.37;;;6.50;99.90;;;;;;5138829;27;20454;-67
2023/11/11 04:03:19;;;;;;;25.20;19.17;;;6.40;99.90;;;;;;5139182;27;20867;-68
2023/11/11 04:05:46;;;;;;;23.80;19.20;;;6.40;99.90;;;;;;5139130;27;20457;-67
2023/11/11 04:08:15;;;;;;;25.90;19.93;;;6.40;99.90;;;;;;5138874;27;20511;-67
2023/11/11 04:10:42;;;;;;;26.47;20.40;;;6.40;99.90;;;;;;5138699;27;20459;-67
2023/11/11 04:13:12;;;;;;;25.83;18.90;;;6.30;99.90;;;;;;5138776;27;20483;-67
2023/11/11 04:15:39;;;;;;;21.20;18.83;;;6.30;99.90;;;;;;5139204;27;20463;-67
2023/11/11 04:18:06;;;;;;;21.97;19.57;;;6.40;99.90;;;;;;5138870;27;20538;-67
2023/11/11 04:20:33;;;;;;;23.70;19.13;;;6.40;99.90;;;;;;5138962;27;20552;-67
2023/11/11 04:23:01;;;;;;;24.47;19.43;;;6.40;99.90;;;;;;5139008;27;20454;-67
2023/11/11 04:25:29;;;;;;;21.67;17.97;;;6.40;99.90;;;;;;5138765;27;20483;-74
2023/11/11 04:27:56;;;;;;;22.37;19.10;;;6.40;99.90;;;;;;5138892;27;20490;-69
2023/11/11 04:30:23;;;;;;;20.13;17.60;;;6.30;99.90;;;;;;5137587;27;20894;-67
2023/11/11 04:32:51;;;;;;;23.07;19.00;;;6.40;99.90;;;;;;5138421;27;20950;-67
2023/11/11 04:35:18;;;;;;;25.20;19.17;;;6.40;99.90;;;;;;5138530;27;20460;-67
2023/11/11 04:37:45;;;;;;;22.80;19.20;;;6.40;99.90;;;;;;5138359;27;20475;-68
2023/11/11 04:40:14;;;;;;;19.93;17.83;;;6.40;99.90;;;;;;5138128;27;20454;-67
2023/11/11 04:42:43;;;;;;;22.30;17.90;;;6.30;99.90;;;;;;5138361;27;20887;-66
2023/11/11 04:45:11;;;;;;;19.50;17.43;;;6.40;99.90;;;;;;5138478;27;20505;-64
2023/11/11 04:47:38;;;;;;;19.17;17.03;;;6.40;99.90;;;;;;5138378;27;20436;-65
2023/11/11 04:50:06;;;;;;;21.70;16.07;;;6.30;99.90;;;;;;5138224;27;20461;-63
2023/11/11 04:52:35;;;;;;;18.17;16.27;;;6.30;99.90;;;;;;5137967;27;20497;-65
2023/11/11 04:55:03;;;;;;;17.33;14.00;;;6.20;99.90;;;;;;5138159;27;20459;-65
2023/11/11 04:57:30;;;;;;;16.53;13.93;;;6.20;99.90;;;;;;5138101;27;20458;-65
2023/11/11 04:59:59;;;;;;;18.00;15.43;;;6.20;99.90;;;;;;5138577;27;20805;-66
2023/11/11 05:02:26;;;;;;;15.93;14.33;;;6.30;99.90;;;;;;5138224;27;20457;-65
2023/11/11 05:04:53;;;;;;;15.13;12.43;;;6.20;99.90;;;;;;5138464;27;20886;-66
2023/11/11 05:07:22;;;;;;;14.33;12.87;;;6.30;99.90;;;;;;5138181;28;20468;-66
2023/11/11 05:09:49;;;;;;;13.60;12.20;;;6.30;99.90;;;;;;5138254;28;20549;-66
2023/11/11 05:12:17;;;;;;;14.27;11.73;;;6.30;99.90;;;;;;5137899;28;20954;-65
2023/11/11 05:14:44;;;;;;;13.73;11.43;;;6.30;99.90;;;;;;5137964;28;20458;-66
2023/11/11 05:17:13;;;;;;;12.13;10.67;;;6.30;99.90;;;;;;5137405;28;20440;-66
2023/11/11 05:19:40;;;;;;;16.63;10.43;;;6.30;99.90;;;;;;5138070;28;20498;-67
2023/11/11 05:22:09;;;;;;;15.60;12.07;;;6.20;99.90;;;;;;5137602;28;20435;-66
2023/11/11 05:24:36;;;;;;;12.83;10.50;;;6.30;99.90;;;;;;5138208;28;20465;-66
2023/11/11 05:27:03;;;;;;;13.63;12.10;;;6.30;99.90;;;;;;5137476;28;20459;-67
2023/11/11 05:29:30;;;;;;;14.90;10.80;;;6.30;99.90;;;;;;5137996;28;20455;-67
2023/11/11 05:31:57;;;;;;;11.77;10.67;;;6.30;99.90;;;;;;5138054;28;20489;-67
2023/11/11 05:34:26;;;;;;;11.13;9.60;;;6.20;99.90;;;;;;5137937;28;20490;-67
2023/11/11 05:36:55;;;;;;;10.10;7.80;;;6.20;99.90;;;;;;5137662;27;20465;-67
2023/11/11 05:39:22;;;;;;;11.73;8.47;;;6.20;99.90;;;;;;5140803;27;20486;-66
2023/11/11 05:41:50;;;;;;;11.00;7.57;;;6.20;99.90;;;;;;5141950;27;20507;-66
2023/11/11 05:44:17;;;;;;;10.40;7.43;;;6.20;99.90;;;;;;5141670;27;20454;-65
2023/11/11 05:46:44;;;;;;;10.40;7.90;;;6.20;99.90;;;;;;5141782;27;20473;-64
2023/11/11 05:49:11;;;;;;;7.53;5.67;;;6.20;99.90;;;;;;5142057;27;20718;-65
2023/11/11 05:51:40;;;;;;;7.63;5.67;;;6.10;99.90;;;;;;5141576;27;20552;-66
2023/11/11 05:54:07;;;;;;;7.73;5.80;;;6.10;99.90;;;;;;5141116;27;20589;-65
2023/11/11 05:56:34;;;;;;;9.23;5.20;;;6.10;99.90;;;;;;5140533;27;20454;-66
2023/11/11 05:59:03;;;;;;;9.33;5.33;;;6.00;99.90;;;;;;5140495;27;20907;-66
2023/11/11 06:01:31;;;;;;;6.23;4.90;;;6.00;99.90;;;;;;5141274;27;20466;-66
2023/11/11 06:03:58;;;;;;;7.77;4.13;;;6.00;99.90;;;;;;5140957;27;20453;-64
2023/11/11 06:06:25;;;;;;;5.93;4.37;;;6.00;99.90;;;;;;5140944;27;20460;-66
2023/11/11 06:08:54;;;;;;;7.93;4.57;;;6.00;99.90;;;;;;5141040;27;20458;-66
2023/11/11 06:11:21;;;;;;;7.17;5.30;;;6.00;99.90;;;;;;5141688;27;20501;-64
2023/11/11 06:13:48;;;;;;;12.00;4.87;;;6.00;99.90;;;;;;5141050;27;20544;-65
2023/11/11 06:16:15;;;;;;;8.77;4.80;;;6.10;99.90;;;;;;5141031;27;20457;-65
2023/11/11 06:18:43;;;;;;;6.57;4.30;;;6.10;99.90;;;;;;5140855;27;20541;-64
2023/11/11 06:21:10;;;;;;;5.97;4.53;;;6.10;99.90;;;;;;5140970;27;20854;-64
2023/11/11 06:23:37;;;;;;;9.50;4.23;;;6.00;99.90;;;;;;5141123;27;20458;-64
2023/11/11 06:26:07;;;;;;;11.20;4.80;;;6.00;99.90;;;;;;5140640;27;20454;-64
2023/11/11 06:28:34;;;;;;;7.67;4.27;;;5.90;99.90;;;;;;5140170;27;20528;-66
2023/11/11 06:31:01;;;;;;;5.53;4.90;;;5.90;99.90;;;;;;5140019;27;20480;-65
2023/11/11 06:33:29;;;;;;;7.30;4.53;;;5.90;99.90;;;;;;5140953;27;20598;-65
2023/11/11 06:35:58;;;;;;;7.23;4.77;;;5.90;99.90;;;;;;5140977;27;20528;-69
2023/11/11 06:38:25;;;;;;;10.73;4.73;;;5.90;99.90;;;;;;5140592;27;20490;-66
2023/11/11 06:40:52;;;;;;;12.70;5.50;;;5.90;99.90;;;;;;5140412;27;20565;-65
2023/11/11 06:43:21;;;;;;;6.10;4.63;;;6.00;99.90;;;;;;5140825;27;20473;-64
2023/11/11 06:45:48;;;;;;;7.23;4.20;;;6.00;99.90;;;;;;5140637;27;20454;-64
2023/11/11 06:48:16;;;;;;;9.60;5.13;;;5.90;99.90;;;;;;5140228;27;20457;-65
2023/11/11 06:50:43;;;;;;;5.50;4.90;;;6.00;99.90;;;;;;5139924;27;20458;-66
2023/11/11 06:53:11;;;;;;;11.07;5.40;;;6.10;99.90;;;;;;5140528;27;21005;-66
2023/11/11 06:55:39;;;;;;;10.10;7.40;;;6.10;99.90;;;;;;5140341;27;20433;-66
2023/11/11 06:58:06;;;;;;;10.20;8.80;;;6.10;99.90;;;;;;5139979;27;20455;-65
2023/11/11 07:00:35;;;;;;;15.30;9.03;;;6.10;99.90;;;;;;5139871;27;20466;-65
2023/11/11 07:03:03;;;;;;;16.13;9.63;;;6.10;99.90;;;;;;5140451;27;20475;-63
2023/11/11 07:05:30;;;;;;;15.23;10.60;;;6.20;99.90;;;;;;5140673;27;20437;-66
2023/11/11 07:07:57;;;;;;;12.70;10.80;;;6.20;99.90;;;;;;5140261;27;20490;-65
2023/11/11 07:10:24;;;;;;;11.90;9.97;;;6.20;99.90;;;;;;5139726;27;20461;-64
2023/11/11 07:12:52;;;;;;;16.60;12.37;;;6.30;99.90;;;;;;5139822;27;20463;-65
2023/11/11 07:15:20;;;;;;;19.07;11.60;;;6.20;99.90;;;;;;5139894;27;20466;-66
2023/11/11 07:17:49;;;;;;;17.43;12.00;;;6.20;99.90;;;;;;5139906;27;20434;-69
2023/11/11 07:20:18;;;;;;;14.93;11.33;;;6.20;99.90;;;;;;5139419;27;20550;-65
2023/11/11 07:22:46;;;;;;;23.10;11.60;;;6.30;99.90;;;;;;5139561;27;20469;-65
2023/11/11 07:25:13;;;;;;;16.27;11.23;;;6.30;99.90;;;;;;5139955;27;20545;-66
2023/11/11 07:27:40;;;;;;;18.30;12.67;;;6.30;99.90;;;;;;5138742;27;20494;-68
2023/11/11 07:30:10;;;;;;;14.27;11.57;;;6.40;99.90;;;;;;5138172;27;20434;-67
2023/11/11 07:32:37;;;;;;;15.37;12.13;;;6.40;99.90;;;;;;5139492;27;20588;-66
2023/11/11 07:35:10;;;;;;;25.47;13.27;;;6.40;99.90;;;;;;5139878;27;20493;-66
2023/11/11 07:37:38;;;;;;;17.43;11.43;;;6.40;99.90;;;;;;5139678;27;20493;-66
2023/11/11 07:40:08;;;;;;;15.13;13.53;;;6.40;99.90;;;;;;5139270;27;20467;-66
2023/11/11 07:42:35;;;;;;;16.57;12.03;;;6.40;99.90;;;;;;5139587;27;20964;-66
2023/11/11 07:45:04;;;;;;;19.83;11.07;;;6.40;99.90;;;;;;5139409;27;20486;-66
2023/11/11 07:47:31;;;;;;;12.00;10.67;;;6.30;99.90;;;;;;5139623;27;20903;-65
2023/11/11 07:49:59;;;;;;;17.27;11.87;;;6.40;99.90;;;;;;5139034;27;20768;-67
2023/11/11 07:52:29;;;;;;;15.20;11.13;;;6.40;99.90;;;;;;5139328;27;20560;-66
2023/11/11 07:54:58;;;;;;;13.70;11.50;;;6.40;99.90;;;;;;5139173;27;20513;-66
2023/11/11 07:57:25;;;;;;;13.43;10.30;;;6.40;99.90;;;;;;5138804;27;20478;-66
2023/11/11 07:59:53;;;;;;;18.43;11.97;;;6.40;99.90;;;;;;5139177;27;20463;-67
2023/11/11 08:02:24;;;;;;;16.63;11.97;;;6.40;99.90;;;;;;5118622;27;20466;-66
2023/11/11 08:04:52;;;;;;;23.00;17.50;;;6.40;99.90;;;;;;5139133;27;20915;-67
2023/11/11 08:07:20;;;;;;;24.30;19.43;;;6.30;99.90;;;;;;5138520;27;20838;-67
2023/11/11 08:09:50;;;;;;;12.97;10.10;;;6.30;99.90;;;;;;5138789;27;20531;-67
2023/11/11 08:12:19;;;;;;;15.73;13.23;;;6.30;99.90;;;;;;5138384;27;20685;-72
2023/11/11 08:14:46;;;;;;;13.17;11.33;;;6.30;99.90;;;;;;5138560;27;20784;-66
2023/11/11 08:17:14;;;;;;;19.90;14.43;;;6.30;99.90;;;;;;5138065;27;20879;-65
2023/11/11 08:19:42;;;;;;;15.17;12.30;;;6.30;99.90;;;;;;5138905;27;20463;-66
2023/11/11 08:22:10;;;;;;;16.20;13.33;;;6.40;99.90;;;;;;5138377;27;20772;-67
2023/11/11 08:24:37;;;;;;;11.70;10.50;;;6.30;99.90;;;;;;5139046;27;20454;-66
2023/11/11 08:27:07;;;;;;;16.70;12.53;;;6.30;99.90;;;;;;5138561;27;20674;-67
2023/11/11 08:29:34;;;;;;;13.03;10.83;;;6.40;99.90;;;;;;5137789;27;20433;-66
2023/11/11 08:32:02;;;;;;;17.67;13.50;;;6.40;99.90;;;;;;5137785;27;20490;-66
2023/11/11 08:34:31;;;;;;;16.40;12.57;;;6.40;99.90;;;;;;5138321;27;20577;-66
2023/11/11 08:36:58;;;;;;;16.07;12.70;;;6.40;99.90;;;;;;5138661;27;20551;-67
2023/11/11 08:39:26;;;;;;;20.63;12.50;;;6.40;99.90;;;;;;5138492;27;20577;-65
2023/11/11 08:41:54;;;;;;;17.07;13.03;;;6.40;99.90;;;;;;5138597;27;20799;-67
2023/11/11 08:44:23;;;;;;;16.90;12.33;;;6.40;99.90;;;;;;5138145;27;20451;-70
2023/11/11 08:46:50;;;;;;;22.20;13.27;;;6.40;99.90;;;;;;5138198;27;20556;-70
2023/11/11 08:49:17;;;;;;;16.77;13.17;;;6.30;99.90;;;;;;5138269;27;20433;-67
2023/11/11 08:51:47;;;;;;;17.20;13.00;;;6.30;99.90;;;;;;5138097;27;20545;-67
2023/11/11 08:54:14;;;;;;;19.57;14.37;;;6.30;99.90;;;;;;5138025;27;21065;-67
2023/11/11 08:56:42;;;;;;;15.87;12.70;;;6.30;99.90;;;;;;5138002;27;20471;-67
2023/11/11 08:59:11;;;;;;;16.77;13.77;;;6.30;99.90;;;;;;5138057;27;20944;-67
2023/11/11 09:01:40;;;;;;;21.03;13.50;;;6.40;99.90;;;;;;5138274;27;20451;-67
2023/11/11 09:04:08;;;;;;;20.20;13.67;;;6.40;99.90;;;;;;5138031;27;20503;-67
2023/11/11 09:06:36;;;;;;;21.60;14.50;;;6.40;99.90;;;;;;5138115;28;20463;-67
2023/11/11 09:09:03;;;;;;;23.57;13.77;;;6.50;99.90;;;;;;5138139;28;20954;-67
2023/11/11 09:11:36;;;;;;;24.43;15.20;;;6.40;99.90;;;;;;5138485;27;20736;-66
2023/11/11 09:14:05;;;;;;;19.70;15.27;;;6.40;99.90;;;;;;5142197;27;20496;-67
2023/11/11 09:16:35;;;;;;;15.20;12.87;;;6.50;99.90;;;;;;5142631;27;20545;-68
2023/11/11 09:19:04;;;;;;;17.10;14.30;;;6.50;99.90;;;;;;5142032;27;20780;-67
2023/11/11 09:21:32;;;;;;;16.63;14.00;;;6.60;99.90;;;;;;5141456;27;20507;-68
2023/11/11 09:24:00;;;;;;;21.07;15.10;;;6.70;99.90;;;;;;5140758;27;20876;-67
2023/11/11 09:26:28;;;;;;;19.57;13.30;;;6.70;99.90;;;;;;5140807;27;20465;-66
2023/11/11 09:28:56;;;;;;;20.00;13.33;;;6.80;99.90;;;;;;5140926;27;20501;-67
2023/11/11 09:31:24;;;;;;;25.20;13.83;;;6.80;99.90;;;;;;5140787;27;20463;-68
2023/11/11 09:33:53;;;;;;;15.83;11.77;;;6.90;99.90;;;;;;5140949;27;20478;-64
2023/11/11 09:36:22;;;;;;;15.87;12.30;;;6.80;99.90;;;;;;5133864;27;20466;-64
2023/11/11 09:38:49;;;;;;;15.57;12.50;;;6.60;99.90;;;;;;5140935;27;20482;-64
2023/11/11 09:41:18;;;;;;;17.63;13.60;;;6.50;99.90;;;;;;5141094;27;20746;-66
2023/11/11 09:43:45;;;;;;;19.23;12.73;;;6.50;99.90;;;;;;5141627;27;20451;-64
2023/11/11 09:46:16;;;;;;;19.60;12.30;;;6.40;99.90;;;;;;5141853;27;20458;-63
2023/11/11 09:48:44;;;;;;;21.50;12.70;;;6.50;99.90;;;;;;5142647;27;20451;-66
2023/11/11 09:51:12;;;;;;;18.83;14.47;;;6.50;99.90;;;;;;5142488;27;20755;-65
2023/11/11 09:53:42;;;;;;;22.50;14.17;;;6.40;99.90;;;;;;5141617;27;20437;-63
2023/11/11 09:56:11;;;;;;;18.97;13.53;;;6.50;99.90;;;;;;5141346;27;20840;-64
2023/11/11 09:58:39;;;;;;;19.87;13.87;;;6.50;99.90;;;;;;5141757;27;20549;-65
2023/11/11 10:01:07;;;;;;;16.30;10.90;;;6.40;99.90;;;;;;5141890;27;20458;-63
2023/11/11 10:03:34;;;;;;;12.40;8.97;;;6.30;99.90;;;;;;5141779;27;20550;-64
2023/11/11 10:06:04;;;;;;;12.50;10.27;;;6.20;99.90;;;;;;5141307;27;20462;-65
2023/11/11 10:08:31;;;;;;;15.30;12.87;;;6.10;99.90;;;;;;5141806;27;20462;-64
2023/11/11 10:11:00;;;;;;;14.00;10.17;;;6.20;99.90;;;;;;5141698;27;20454;-64
2023/11/11 10:13:28;;;;;;;16.37;11.30;;;6.20;99.90;;;;;;5141634;27;20489;-64
2023/11/11 10:16:18;;;;;;;16.60;9.70;;;6.20;99.90;;;;;;5140889;27;20945;-63
2023/11/11 10:18:46;;;;;;;16.50;10.50;;;6.40;99.90;;;;;;5141499;27;20574;-64
2023/11/11 10:21:16;;;;;;;13.90;11.40;;;6.40;99.90;;;;;;5142010;27;20462;-63
2023/11/11 10:23:45;;;;;;;12.20;9.47;;;6.60;99.90;;;;;;5141318;27;20515;-65
2023/11/11 10:26:15;;;;;;;12.20;8.90;;;6.70;99.90;;;;;;5141231;27;20466;-64
2023/11/11 10:28:43;;;;;;;11.53;8.87;;;6.80;99.90;;;;;;5141970;27;20480;-65
2023/11/11 10:31:11;;;;;;;13.17;9.40;;;6.90;99.90;;;;;;5142301;27;20430;-66
2023/11/11 10:33:39;;;;;;;14.00;10.50;;;6.90;99.90;;;;;;5142570;27;20462;-66
2023/11/11 10:36:08;;;;;;;16.63;9.83;;;6.80;99.90;;;;;;5142058;27;20923;-66
2023/11/11 10:38:35;;;;;;;17.47;11.13;;;6.90;99.90;;;;;;5141411;27;20478;-67
2023/11/11 10:41:03;;;;;;;15.80;10.13;;;6.90;99.90;;;;;;5140851;27;20493;-65
2023/11/11 10:43:33;;;;;;;18.47;11.60;;;7.00;99.90;;;;;;5141639;27;20473;-65
2023/11/11 10:46:01;;;;;;;17.07;10.70;;;7.00;99.90;;;;;;5141855;27;20450;-66
2023/11/11 10:48:29;;;;;;;16.23;11.07;;;7.00;99.90;;;;;;5141749;27;20462;-65
2023/11/11 10:50:57;;;;;;;19.40;11.50;;;7.10;99.90;;;;;;5140580;27;20441;-65
2023/11/11 10:53:27;;;;;;;18.30;10.87;;;7.10;99.90;;;;;;5140176;27;20636;-63
2023/11/11 10:55:54;;;;;;;13.83;11.17;;;7.00;99.90;;;;;;5140415;27;20523;-65
2023/11/11 10:58:22;;;;;;;18.20;12.13;;;6.90;99.90;;;;;;5140927;27;20458;-64
2023/11/11 11:00:51;;;;;;;17.13;12.57;;;6.90;99.90;;;;;;5140687;27;20451;-64
2023/11/11 11:03:23;;;;;;;16.63;12.50;;;6.90;99.90;;;;;;5140633;27;20764;-62
2023/11/11 11:05:59;;;;;;;19.20;12.30;;;7.00;99.90;;;;;;5140216;27;20450;-62
2023/11/11 11:08:32;;;;;;;20.00;11.20;;;7.10;99.90;;;;;;5139232;27;20511;-63
2023/11/11 11:11:22;;;;;;;16.80;11.13;;;7.10;99.90;;;;;;5138843;27;20952;-62
2023/11/11 11:13:59;;;;;;;15.97;10.83;;;7.20;99.90;;;;;;5138537;27;20451;-64
2023/11/11 11:16:30;;;;;;;14.10;10.80;;;7.10;99.90;;;;;;5138034;27;20497;-64
2023/11/11 11:18:59;;;;;;;13.57;9.60;;;7.20;99.90;;;;;;5138637;27;20817;-64
2023/11/11 11:21:28;;;;;;;15.93;10.10;;;7.30;99.90;;;;;;5139409;27;20455;-65
2023/11/11 11:23:56;;;;;;;15.37;9.60;;;7.40;99.90;;;;;;5138344;27;20473;-66
2023/11/11 11:26:31;;;;;;;15.30;10.30;;;7.30;99.90;;;;;;5138218;27;20533;-65
2023/11/11 11:29:11;;;;;;;14.13;10.03;;;7.50;99.90;;;;;;5137797;27;20458;-65
2023/11/11 11:32:11;;;;;;;14.27;10.20;;;7.90;99.90;;;;;;5137832;27;20436;-69
2023/11/11 11:34:42;;;;;;;18.87;8.47;;;8.10;99.90;;;;;;5137631;27;20535;-65
2023/11/11 11:37:10;;;;;;;16.90;9.40;;;8.20;99.90;;;;;;5136341;27;20488;-66
2023/11/11 11:39:56;;;;;;;15.80;8.73;;;8.30;99.90;;;;;;5098057;28;20911;-66
2023/11/11 11:42:27;;;;;;;17.37;8.37;;;8.40;99.90;;;;;;5097770;28;20460;-65
2023/11/11 11:44:56;;;;;;;15.23;7.43;;;8.40;99.90;;;;;;5097862;28;20456;-66
2023/11/11 11:47:24;;;;;;;10.80;7.17;;;8.60;99.90;;;;;;5098341;28;20427;-66
2023/11/11 11:49:55;;;;;;;9.23;7.47;;;8.80;99.90;;;;;;5098779;28;20803;-68
2023/11/11 11:52:23;;;;;;;18.00;7.87;;;8.80;99.90;;;;;;5097965;28;20461;-67
2023/11/11 11:54:51;;;;;;;9.57;6.83;;;8.70;99.90;;;;;;5098227;28;20484;-67
2023/11/11 11:57:18;;;;;;;12.13;7.47;;;8.70;99.90;;;;;;5097884;28;20902;-67
2023/11/11 11:59:46;;;;;;;10.87;6.37;;;8.70;99.90;;;;;;5092753;28;20828;-68
2023/11/11 12:02:15;;;;;;;10.00;6.80;;;8.60;99.90;;;;;;5077463;28;20973;-66
2023/11/11 12:04:42;;;;;;;10.87;6.30;;;8.50;99.90;;;;;;5077942;28;20457;-67
2023/11/11 12:07:13;;;;;;;13.70;6.87;;;8.30;99.90;;;;;;5077644;28;20551;-67
2023/11/11 12:09:41;;;;;;;11.43;7.00;;;8.10;99.90;;;;;;5077821;28;20906;-68
2023/11/11 12:12:10;;;;;;;12.00;7.80;;;8.30;99.90;;;;;;5077450;28;20457;-67
2023/11/11 12:14:45;;;;;;;9.00;6.60;;;8.50;99.90;;;;;;5077583;28;20489;-68
2023/11/11 12:17:17;;;;;;;10.00;6.80;;;8.70;99.90;;;;;;5097106;28;20461;-69
2023/11/11 12:19:48;;;;;;;9.50;6.40;;;8.70;99.90;;;;;;5096722;28;20496;-68
2023/11/11 12:22:17;;;;;;;9.67;5.47;;;8.60;99.90;;;;;;5097835;28;20435;-68
2023/11/11 12:24:44;;;;;;;9.50;5.40;;;8.50;99.90;;;;;;5097389;28;20452;-68
2023/11/11 12:27:12;;;;;;;9.97;5.77;;;8.30;1.00;;;;;;5097392;28;20496;-68
2023/11/11 12:29:41;;;;;;;12.10;6.50;;;8.20;1.00;;;;;;5097355;28;20460;-68
2023/11/11 12:32:13;;;;;;;11.23;7.17;;;8.20;99.90;;;;;;5097574;28;20482;-68
2023/11/11 12:34:41;;;;;;;8.60;5.70;;;8.20;99.90;;;;;;5097744;28;20527;-68
2023/11/11 12:37:09;;;;;;;10.80;5.90;;;8.20;1.00;;;;;;5097769;28;20453;-68
2023/11/11 12:39:50;;;;;;;8.83;5.50;;;8.40;99.90;;;;;;5138312;27;20577;-68
2023/11/11 12:42:25;;;;;;;6.73;5.03;;;8.40;99.90;;;;;;5138547;27;20531;-70
2023/11/11 12:44:53;;;;;;;9.73;4.70;;;8.20;99.90;;;;;;5138592;27;20744;-69
2023/11/11 12:47:20;;;;;;;10.17;6.03;;;8.20;1.00;;;;;;5138319;27;20500;-67
2023/11/11 12:49:51;;;;;;;11.90;6.53;;;8.30;1.00;;;;;;5138324;27;20883;-68